sensor_id;sensor_type;location;lat;lon;timestamp;P1;durP1;ratioP1;P2;durP2;ratioP2
21814;SDS011;11069;48.988;8.450;2023-11-18T00:00:31;18.08;;;15.85;;
21814;SDS011;11069;48.988;8.450;2023-11-18T00:02:56;19.17;;;15.50;;
21814;SDS011;11069;48.988;8.450;2023-11-18T00:05:22;20.92;;;16.48;;
21814;SDS011;11069;48.988;8.450;2023-11-18T00:07:48;19.23;;;16.23;;
21814;SDS011;11069;48.988;8.450;2023-11-18T00:10:15;18.08;;;15.85;;
21814;SDS011;11069;48.988;8.450;2023-11-18T00:12:40;18.58;;;16.58;;
21814;SDS011;11069;48.988;8.450;2023-11-18T00:15:07;19.30;;;16.02;;
21814;SDS011;11069;48.988;8.450;2023-11-18T00:17:35;22.08;;;17.05;;
21814;SDS011;11069;48.988;8.450;2023-11-18T00:20:01;19.63;;;16.88;;
21814;SDS011;11069;48.988;8.450;2023-11-18T00:22:33;18.67;;;16.05;;
21814;SDS011;11069;48.988;8.450;2023-11-18T00:24:59;19.77;;;16.73;;
21814;SDS011;11069;48.988;8.450;2023-11-18T00:27:24;19.83;;;16.75;;
21814;SDS011;11069;48.988;8.450;2023-11-18T00:29:50;18.58;;;15.88;;
21814;SDS011;11069;48.988;8.450;2023-11-18T00:32:16;20.25;;;16.67;;
21814;SDS011;11069;48.988;8.450;2023-11-18T00:34:41;19.10;;;16.98;;
21814;SDS011;11069;48.988;8.450;2023-11-18T00:37:07;20.92;;;16.88;;
21814;SDS011;11069;48.988;8.450;2023-11-18T00:39:32;22.05;;;16.98;;
21814;SDS011;11069;48.988;8.450;2023-11-18T00:41:58;18.95;;;16.98;;
21814;SDS011;11069;48.988;8.450;2023-11-18T00:44:24;23.08;;;18.27;;
21814;SDS011;11069;48.988;8.450;2023-11-18T00:46:49;21.35;;;16.80;;
21814;SDS011;11069;48.988;8.450;2023-11-18T00:49:15;21.02;;;16.65;;
21814;SDS011;11069;48.988;8.450;2023-11-18T00:51:40;19.40;;;15.77;;
21814;SDS011;11069;48.988;8.450;2023-11-18T00:54:06;19.73;;;15.70;;
21814;SDS011;11069;48.988;8.450;2023-11-18T00:56:32;18.10;;;16.17;;
21814;SDS011;11069;48.988;8.450;2023-11-18T00:58:58;21.05;;;16.17;;
21814;SDS011;11069;48.988;8.450;2023-11-18T01:01:26;18.80;;;15.38;;
21814;SDS011;11069;48.988;8.450;2023-11-18T01:03:52;17.35;;;14.50;;
21814;SDS011;11069;48.988;8.450;2023-11-18T01:06:18;16.73;;;14.35;;
21814;SDS011;11069;48.988;8.450;2023-11-18T01:08:44;16.70;;;13.77;;
21814;SDS011;11069;48.988;8.450;2023-11-18T01:11:16;15.70;;;13.52;;
21814;SDS011;11069;48.988;8.450;2023-11-18T01:13:45;15.95;;;13.25;;
21814;SDS011;11069;48.988;8.450;2023-11-18T01:16:11;15.48;;;12.77;;
21814;SDS011;11069;48.988;8.450;2023-11-18T01:18:38;14.85;;;13.25;;
21814;SDS011;11069;48.988;8.450;2023-11-18T01:21:04;14.27;;;12.77;;
21814;SDS011;11069;48.988;8.450;2023-11-18T01:23:30;14.30;;;11.90;;
21814;SDS011;11069;48.988;8.450;2023-11-18T01:25:56;15.23;;;13.60;;
21814;SDS011;11069;48.988;8.450;2023-11-18T01:28:22;15.57;;;11.77;;
21814;SDS011;11069;48.988;8.450;2023-11-18T01:30:51;12.90;;;11.25;;
21814;SDS011;11069;48.988;8.450;2023-11-18T01:33:16;12.65;;;11.07;;
21814;SDS011;11069;48.988;8.450;2023-11-18T01:35:43;14.70;;;11.38;;
21814;SDS011;11069;48.988;8.450;2023-11-18T01:38:09;12.45;;;10.50;;
21814;SDS011;11069;48.988;8.450;2023-11-18T01:40:37;12.57;;;11.27;;
21814;SDS011;11069;48.988;8.450;2023-11-18T01:43:03;12.60;;;11.13;;
21814;SDS011;11069;48.988;8.450;2023-11-18T01:45:36;11.80;;;10.43;;
21814;SDS011;11069;48.988;8.450;2023-11-18T01:48:01;12.50;;;10.75;;
21814;SDS011;11069;48.988;8.450;2023-11-18T01:50:27;11.55;;;10.43;;
21814;SDS011;11069;48.988;8.450;2023-11-18T01:52:53;11.48;;;10.27;;
21814;SDS011;11069;48.988;8.450;2023-11-18T01:55:18;12.70;;;10.75;;
21814;SDS011;11069;48.988;8.450;2023-11-18T01:57:44;12.15;;;10.85;;
21814;SDS011;11069;48.988;8.450;2023-11-18T02:00:10;13.25;;;11.05;;
21814;SDS011;11069;48.988;8.450;2023-11-18T02:02:37;12.20;;;10.90;;
21814;SDS011;11069;48.988;8.450;2023-11-18T02:05:03;13.50;;;10.52;;
21814;SDS011;11069;48.988;8.450;2023-11-18T02:07:33;11.40;;;10.30;;
21814;SDS011;11069;48.988;8.450;2023-11-18T02:10:01;11.20;;;10.00;;
21814;SDS011;11069;48.988;8.450;2023-11-18T02:15:05;11.82;;;9.85;;
21814;SDS011;11069;48.988;8.450;2023-11-18T02:17:35;12.88;;;11.13;;
21814;SDS011;11069;48.988;8.450;2023-11-18T02:20:03;13.60;;;11.05;;
21814;SDS011;11069;48.988;8.450;2023-11-18T02:22:40;11.85;;;10.32;;
21814;SDS011;11069;48.988;8.450;2023-11-18T02:25:12;12.70;;;11.40;;
21814;SDS011;11069;48.988;8.450;2023-11-18T02:27:43;12.68;;;11.25;;
21814;SDS011;11069;48.988;8.450;2023-11-18T02:30:11;14.75;;;11.57;;
21814;SDS011;11069;48.988;8.450;2023-11-18T02:32:58;13.63;;;11.25;;
21814;SDS011;11069;48.988;8.450;2023-11-18T02:35:51;12.48;;;11.18;;
21814;SDS011;11069;48.988;8.450;2023-11-18T02:38:22;13.02;;;11.63;;
21814;SDS011;11069;48.988;8.450;2023-11-18T02:41:01;12.15;;;10.85;;
21814;SDS011;11069;48.988;8.450;2023-11-18T02:43:33;14.32;;;11.40;;
21814;SDS011;11069;48.988;8.450;2023-11-18T02:46:02;12.10;;;10.43;;
21814;SDS011;11069;48.988;8.450;2023-11-18T02:48:30;12.55;;;11.23;;
21814;SDS011;11069;48.988;8.450;2023-11-18T02:50:57;11.82;;;10.57;;
21814;SDS011;11069;48.988;8.450;2023-11-18T02:53:24;11.93;;;10.70;;
21814;SDS011;11069;48.988;8.450;2023-11-18T02:55:49;14.18;;;11.52;;
21814;SDS011;11069;48.988;8.450;2023-11-18T02:58:17;12.63;;;10.98;;
21814;SDS011;11069;48.988;8.450;2023-11-18T03:00:43;13.32;;;10.73;;
21814;SDS011;11069;48.988;8.450;2023-11-18T03:03:09;13.23;;;10.93;;
21814;SDS011;11069;48.988;8.450;2023-11-18T03:05:36;11.85;;;10.57;;
21814;SDS011;11069;48.988;8.450;2023-11-18T03:08:02;12.07;;;10.88;;
21814;SDS011;11069;48.988;8.450;2023-11-18T03:10:31;14.48;;;11.18;;
21814;SDS011;11069;48.988;8.450;2023-11-18T03:12:59;13.88;;;10.98;;
21814;SDS011;11069;48.988;8.450;2023-11-18T03:15:26;12.57;;;11.10;;
21814;SDS011;11069;48.988;8.450;2023-11-18T03:17:52;13.95;;;11.35;;
21814;SDS011;11069;48.988;8.450;2023-11-18T03:20:20;13.02;;;11.63;;
21814;SDS011;11069;48.988;8.450;2023-11-18T03:22:47;13.60;;;11.05;;
21814;SDS011;11069;48.988;8.450;2023-11-18T03:25:15;12.88;;;11.00;;
21814;SDS011;11069;48.988;8.450;2023-11-18T03:27:41;12.68;;;11.23;;
21814;SDS011;11069;48.988;8.450;2023-11-18T03:30:08;12.65;;;11.27;;
21814;SDS011;11069;48.988;8.450;2023-11-18T03:32:37;13.10;;;11.38;;
21814;SDS011;11069;48.988;8.450;2023-11-18T03:35:05;12.80;;;11.18;;
21814;SDS011;11069;48.988;8.450;2023-11-18T03:37:35;12.77;;;10.90;;
21814;SDS011;11069;48.988;8.450;2023-11-18T03:40:03;14.75;;;10.85;;
21814;SDS011;11069;48.988;8.450;2023-11-18T03:42:37;13.43;;;12.00;;
21814;SDS011;11069;48.988;8.450;2023-11-18T03:45:03;12.85;;;11.07;;
21814;SDS011;11069;48.988;8.450;2023-11-18T03:47:30;12.10;;;10.88;;
21814;SDS011;11069;48.988;8.450;2023-11-18T03:49:56;14.85;;;11.88;;
21814;SDS011;11069;48.988;8.450;2023-11-18T03:52:21;13.15;;;10.98;;
21814;SDS011;11069;48.988;8.450;2023-11-18T03:54:47;15.55;;;11.63;;
21814;SDS011;11069;48.988;8.450;2023-11-18T03:57:13;13.48;;;11.52;;
21814;SDS011;11069;48.988;8.450;2023-11-18T03:59:39;12.48;;;11.20;;
21814;SDS011;11069;48.988;8.450;2023-11-18T04:02:06;13.68;;;12.27;;
21814;SDS011;11069;48.988;8.450;2023-11-18T04:04:32;13.45;;;11.18;;
21814;SDS011;11069;48.988;8.450;2023-11-18T04:06:57;14.65;;;12.45;;
21814;SDS011;11069;48.988;8.450;2023-11-18T04:09:25;13.73;;;11.90;;
21814;SDS011;11069;48.988;8.450;2023-11-18T04:11:51;18.55;;;14.05;;
21814;SDS011;11069;48.988;8.450;2023-11-18T04:14:17;16.25;;;13.05;;
21814;SDS011;11069;48.988;8.450;2023-11-18T04:16:44;16.88;;;13.63;;
21814;SDS011;11069;48.988;8.450;2023-11-18T04:19:10;19.08;;;15.45;;
21814;SDS011;11069;48.988;8.450;2023-11-18T04:21:37;18.63;;;14.65;;
21814;SDS011;11069;48.988;8.450;2023-11-18T04:24:03;18.52;;;14.63;;
21814;SDS011;11069;48.988;8.450;2023-11-18T04:26:30;17.45;;;14.40;;
21814;SDS011;11069;48.988;8.450;2023-11-18T04:28:56;18.17;;;15.02;;
21814;SDS011;11069;48.988;8.450;2023-11-18T04:31:22;18.90;;;14.70;;
21814;SDS011;11069;48.988;8.450;2023-11-18T04:33:48;15.60;;;13.88;;
21814;SDS011;11069;48.988;8.450;2023-11-18T04:36:14;19.85;;;14.98;;
21814;SDS011;11069;48.988;8.450;2023-11-18T04:38:41;17.70;;;14.90;;
21814;SDS011;11069;48.988;8.450;2023-11-18T04:41:07;17.63;;;14.38;;
21814;SDS011;11069;48.988;8.450;2023-11-18T04:43:33;19.00;;;15.02;;
21814;SDS011;11069;48.988;8.450;2023-11-18T04:45:59;20.58;;;15.48;;
21814;SDS011;11069;48.988;8.450;2023-11-18T04:48:25;18.92;;;15.65;;
21814;SDS011;11069;48.988;8.450;2023-11-18T04:50:50;18.70;;;15.13;;
21814;SDS011;11069;48.988;8.450;2023-11-18T04:53:16;22.35;;;17.67;;
21814;SDS011;11069;48.988;8.450;2023-11-18T04:55:42;25.05;;;19.75;;
21814;SDS011;11069;48.988;8.450;2023-11-18T04:58:07;26.88;;;21.45;;
21814;SDS011;11069;48.988;8.450;2023-11-18T05:00:37;32.35;;;23.73;;
21814;SDS011;11069;48.988;8.450;2023-11-18T05:03:04;32.75;;;24.70;;
21814;SDS011;11069;48.988;8.450;2023-11-18T05:05:30;35.10;;;26.08;;
21814;SDS011;11069;48.988;8.450;2023-11-18T05:07:56;35.97;;;26.30;;
21814;SDS011;11069;48.988;8.450;2023-11-18T05:10:22;32.33;;;24.55;;
21814;SDS011;11069;48.988;8.450;2023-11-18T05:12:49;34.20;;;26.17;;
21814;SDS011;11069;48.988;8.450;2023-11-18T05:15:20;35.60;;;26.13;;
21814;SDS011;11069;48.988;8.450;2023-11-18T05:17:53;34.42;;;25.35;;
21814;SDS011;11069;48.988;8.450;2023-11-18T05:20:19;34.40;;;26.27;;
21814;SDS011;11069;48.988;8.450;2023-11-18T05:22:46;40.50;;;29.70;;
21814;SDS011;11069;48.988;8.450;2023-11-18T05:25:12;40.80;;;28.80;;
21814;SDS011;11069;48.988;8.450;2023-11-18T05:27:37;40.42;;;29.83;;
21814;SDS011;11069;48.988;8.450;2023-11-18T05:30:09;38.58;;;28.42;;
21814;SDS011;11069;48.988;8.450;2023-11-18T05:32:35;39.83;;;26.58;;
21814;SDS011;11069;48.988;8.450;2023-11-18T05:35:01;35.00;;;24.60;;
21814;SDS011;11069;48.988;8.450;2023-11-18T05:37:29;36.60;;;26.55;;
21814;SDS011;11069;48.988;8.450;2023-11-18T05:40:00;33.90;;;24.75;;
21814;SDS011;11069;48.988;8.450;2023-11-18T05:42:31;30.35;;;23.02;;
21814;SDS011;11069;48.988;8.450;2023-11-18T05:44:57;32.15;;;23.48;;
21814;SDS011;11069;48.988;8.450;2023-11-18T05:47:27;30.10;;;22.40;;
21814;SDS011;11069;48.988;8.450;2023-11-18T05:49:53;29.67;;;22.15;;
21814;SDS011;11069;48.988;8.450;2023-11-18T05:52:19;31.25;;;22.60;;
21814;SDS011;11069;48.988;8.450;2023-11-18T05:54:45;27.83;;;21.83;;
21814;SDS011;11069;48.988;8.450;2023-11-18T05:57:15;29.10;;;22.48;;
21814;SDS011;11069;48.988;8.450;2023-11-18T05:59:41;31.08;;;22.35;;
21814;SDS011;11069;48.988;8.450;2023-11-18T06:02:07;33.75;;;24.80;;
21814;SDS011;11069;48.988;8.450;2023-11-18T06:04:33;29.75;;;22.40;;
21814;SDS011;11069;48.988;8.450;2023-11-18T06:07:00;31.65;;;24.42;;
21814;SDS011;11069;48.988;8.450;2023-11-18T06:09:27;32.22;;;23.77;;
21814;SDS011;11069;48.988;8.450;2023-11-18T06:11:53;31.92;;;24.48;;
21814;SDS011;11069;48.988;8.450;2023-11-18T06:14:19;30.83;;;23.70;;
21814;SDS011;11069;48.988;8.450;2023-11-18T06:16:46;33.47;;;24.00;;
21814;SDS011;11069;48.988;8.450;2023-11-18T06:19:13;30.45;;;23.80;;
21814;SDS011;11069;48.988;8.450;2023-11-18T06:21:39;34.42;;;24.80;;
21814;SDS011;11069;48.988;8.450;2023-11-18T06:24:05;31.85;;;23.58;;
21814;SDS011;11069;48.988;8.450;2023-11-18T06:26:32;34.85;;;24.73;;
21814;SDS011;11069;48.988;8.450;2023-11-18T06:29:20;32.42;;;24.80;;
21814;SDS011;11069;48.988;8.450;2023-11-18T06:31:46;33.25;;;23.67;;
21814;SDS011;11069;48.988;8.450;2023-11-18T06:34:13;30.25;;;23.90;;
21814;SDS011;11069;48.988;8.450;2023-11-18T06:36:39;32.35;;;23.60;;
21814;SDS011;11069;48.988;8.450;2023-11-18T06:39:04;30.52;;;23.05;;
21814;SDS011;11069;48.988;8.450;2023-11-18T06:41:33;32.28;;;23.35;;
21814;SDS011;11069;48.988;8.450;2023-11-18T06:43:58;28.90;;;22.05;;
21814;SDS011;11069;48.988;8.450;2023-11-18T06:46:31;30.08;;;22.40;;
21814;SDS011;11069;48.988;8.450;2023-11-18T06:48:59;29.90;;;22.15;;
21814;SDS011;11069;48.988;8.450;2023-11-18T06:51:28;31.00;;;24.65;;
21814;SDS011;11069;48.988;8.450;2023-11-18T06:53:56;30.73;;;23.60;;
21814;SDS011;11069;48.988;8.450;2023-11-18T06:56:23;29.27;;;23.63;;
21814;SDS011;11069;48.988;8.450;2023-11-18T06:58:49;29.88;;;22.48;;
21814;SDS011;11069;48.988;8.450;2023-11-18T07:01:15;29.05;;;22.13;;
21814;SDS011;11069;48.988;8.450;2023-11-18T07:03:41;30.88;;;22.70;;
21814;SDS011;11069;48.988;8.450;2023-11-18T07:06:08;28.95;;;21.98;;
21814;SDS011;11069;48.988;8.450;2023-11-18T07:08:35;28.13;;;20.88;;
21814;SDS011;11069;48.988;8.450;2023-11-18T07:11:01;27.90;;;20.77;;
21814;SDS011;11069;48.988;8.450;2023-11-18T07:13:28;30.50;;;21.90;;
21814;SDS011;11069;48.988;8.450;2023-11-18T07:15:54;26.05;;;20.70;;
21814;SDS011;11069;48.988;8.450;2023-11-18T07:18:21;27.55;;;20.90;;
21814;SDS011;11069;48.988;8.450;2023-11-18T07:20:48;26.80;;;20.80;;
21814;SDS011;11069;48.988;8.450;2023-11-18T07:23:16;29.08;;;20.27;;
21814;SDS011;11069;48.988;8.450;2023-11-18T07:25:42;24.02;;;20.70;;
21814;SDS011;11069;48.988;8.450;2023-11-18T07:28:09;24.70;;;20.23;;
21814;SDS011;11069;48.988;8.450;2023-11-18T07:30:35;24.95;;;18.50;;
21814;SDS011;11069;48.988;8.450;2023-11-18T07:33:02;22.67;;;16.80;;
21814;SDS011;11069;48.988;8.450;2023-11-18T07:35:28;20.23;;;15.70;;
21814;SDS011;11069;48.988;8.450;2023-11-18T07:37:54;26.60;;;15.10;;
21814;SDS011;11069;48.988;8.450;2023-11-18T07:40:21;21.90;;;14.40;;
21814;SDS011;11069;48.988;8.450;2023-11-18T07:42:47;18.55;;;14.23;;
21814;SDS011;11069;48.988;8.450;2023-11-18T07:45:12;18.85;;;14.15;;
21814;SDS011;11069;48.988;8.450;2023-11-18T07:47:42;21.65;;;15.27;;
21814;SDS011;11069;48.988;8.450;2023-11-18T07:50:09;19.77;;;14.90;;
21814;SDS011;11069;48.988;8.450;2023-11-18T07:52:38;18.92;;;14.52;;
21814;SDS011;11069;48.988;8.450;2023-11-18T07:55:04;17.85;;;14.15;;
21814;SDS011;11069;48.988;8.450;2023-11-18T07:57:30;20.48;;;14.90;;
21814;SDS011;11069;48.988;8.450;2023-11-18T08:00:01;18.13;;;12.25;;
21814;SDS011;11069;48.988;8.450;2023-11-18T08:02:34;14.30;;;10.77;;
21814;SDS011;11069;48.988;8.450;2023-11-18T08:05:05;12.40;;;10.18;;
21814;SDS011;11069;48.988;8.450;2023-11-18T08:07:43;11.80;;;9.45;;
21814;SDS011;11069;48.988;8.450;2023-11-18T08:10:10;11.48;;;9.10;;
21814;SDS011;11069;48.988;8.450;2023-11-18T08:12:43;9.32;;;7.60;;
21814;SDS011;11069;48.988;8.450;2023-11-18T08:15:10;10.55;;;7.35;;
21814;SDS011;11069;48.988;8.450;2023-11-18T08:17:35;12.02;;;9.05;;
21814;SDS011;11069;48.988;8.450;2023-11-18T08:20:01;39.70;;;35.83;;
21814;SDS011;11069;48.988;8.450;2023-11-18T08:22:39;11.32;;;9.25;;
21814;SDS011;11069;48.988;8.450;2023-11-18T08:25:11;8.60;;;7.70;;
21814;SDS011;11069;48.988;8.450;2023-11-18T08:27:38;7.38;;;6.00;;
21814;SDS011;11069;48.988;8.450;2023-11-18T08:30:05;6.97;;;5.78;;
21814;SDS011;11069;48.988;8.450;2023-11-18T08:32:36;6.25;;;5.15;;
21814;SDS011;11069;48.988;8.450;2023-11-18T08:35:03;5.45;;;4.93;;
21814;SDS011;11069;48.988;8.450;2023-11-18T08:37:32;5.97;;;5.22;;
21814;SDS011;11069;48.988;8.450;2023-11-18T08:40:00;5.93;;;5.32;;
21814;SDS011;11069;48.988;8.450;2023-11-18T08:42:31;7.18;;;5.25;;
21814;SDS011;11069;48.988;8.450;2023-11-18T08:44:58;7.30;;;4.68;;
21814;SDS011;11069;48.988;8.450;2023-11-18T08:47:25;5.68;;;4.90;;
21814;SDS011;11069;48.988;8.450;2023-11-18T08:49:51;5.72;;;4.80;;
21814;SDS011;11069;48.988;8.450;2023-11-18T08:52:17;4.47;;;4.07;;
21814;SDS011;11069;48.988;8.450;2023-11-18T08:54:43;8.40;;;4.93;;
21814;SDS011;11069;48.988;8.450;2023-11-18T08:57:27;4.75;;;4.32;;
21814;SDS011;11069;48.988;8.450;2023-11-18T08:59:59;5.25;;;4.68;;
21814;SDS011;11069;48.988;8.450;2023-11-18T09:02:32;7.97;;;4.40;;
21814;SDS011;11069;48.988;8.450;2023-11-18T09:05:02;5.55;;;4.10;;
21814;SDS011;11069;48.988;8.450;2023-11-18T09:07:31;5.15;;;3.80;;
21814;SDS011;11069;48.988;8.450;2023-11-18T09:09:59;5.03;;;3.67;;
21814;SDS011;11069;48.988;8.450;2023-11-18T09:12:27;4.93;;;4.00;;
21814;SDS011;11069;48.988;8.450;2023-11-18T09:15:01;6.38;;;4.55;;
21814;SDS011;11069;48.988;8.450;2023-11-18T09:17:28;7.20;;;4.22;;
21814;SDS011;11069;48.988;8.450;2023-11-18T09:19:54;5.78;;;4.50;;
21814;SDS011;11069;48.988;8.450;2023-11-18T09:22:21;6.32;;;4.28;;
21814;SDS011;11069;48.988;8.450;2023-11-18T09:24:47;5.45;;;3.67;;
21814;SDS011;11069;48.988;8.450;2023-11-18T09:27:14;4.50;;;3.78;;
21814;SDS011;11069;48.988;8.450;2023-11-18T09:29:40;5.22;;;4.65;;
21814;SDS011;11069;48.988;8.450;2023-11-18T09:32:06;5.45;;;3.70;;
21814;SDS011;11069;48.988;8.450;2023-11-18T09:34:31;4.88;;;3.28;;
21814;SDS011;11069;48.988;8.450;2023-11-18T09:36:58;3.80;;;3.05;;
21814;SDS011;11069;48.988;8.450;2023-11-18T09:39:23;8.32;;;2.92;;
21814;SDS011;11069;48.988;8.450;2023-11-18T09:42:02;4.38;;;3.20;;
21814;SDS011;11069;48.988;8.450;2023-11-18T09:44:29;3.28;;;2.97;;
21814;SDS011;11069;48.988;8.450;2023-11-18T09:46:56;3.50;;;3.20;;
21814;SDS011;11069;48.988;8.450;2023-11-18T09:49:31;3.83;;;3.10;;
21814;SDS011;11069;48.988;8.450;2023-11-18T09:52:04;3.22;;;2.90;;
21814;SDS011;11069;48.988;8.450;2023-11-18T09:54:36;3.55;;;2.75;;
21814;SDS011;11069;48.988;8.450;2023-11-18T09:57:19;4.88;;;2.75;;
21814;SDS011;11069;48.988;8.450;2023-11-18T10:00:03;3.80;;;2.78;;
21814;SDS011;11069;48.988;8.450;2023-11-18T10:02:59;3.22;;;2.40;;
21814;SDS011;11069;48.988;8.450;2023-11-18T10:05:27;3.72;;;2.50;;
21814;SDS011;11069;48.988;8.450;2023-11-18T10:07:55;4.18;;;2.70;;
21814;SDS011;11069;48.988;8.450;2023-11-18T10:10:23;3.97;;;2.53;;
21814;SDS011;11069;48.988;8.450;2023-11-18T10:12:54;4.45;;;2.47;;
21814;SDS011;11069;48.988;8.450;2023-11-18T10:15:23;2.85;;;2.55;;
21814;SDS011;11069;48.988;8.450;2023-11-18T10:17:50;3.90;;;2.85;;
21814;SDS011;11069;48.988;8.450;2023-11-18T10:23:16;3.75;;;2.38;;
21814;SDS011;11069;48.988;8.450;2023-11-18T10:25:49;3.60;;;2.20;;
21814;SDS011;11069;48.988;8.450;2023-11-18T10:28:26;3.67;;;2.20;;
21814;SDS011;11069;48.988;8.450;2023-11-18T10:30:55;3.90;;;2.28;;
21814;SDS011;11069;48.988;8.450;2023-11-18T10:33:23;3.28;;;2.47;;
21814;SDS011;11069;48.988;8.450;2023-11-18T10:35:55;3.97;;;2.25;;
21814;SDS011;11069;48.988;8.450;2023-11-18T10:38:21;4.47;;;2.42;;
21814;SDS011;11069;48.988;8.450;2023-11-18T10:40:53;7.70;;;2.30;;
21814;SDS011;11069;48.988;8.450;2023-11-18T10:43:21;4.73;;;2.40;;
21814;SDS011;11069;48.988;8.450;2023-11-18T10:45:50;3.17;;;2.30;;
21814;SDS011;11069;48.988;8.450;2023-11-18T10:48:17;6.25;;;2.70;;
21814;SDS011;11069;48.988;8.450;2023-11-18T10:50:48;3.72;;;2.22;;
21814;SDS011;11069;48.988;8.450;2023-11-18T10:53:16;3.35;;;2.47;;
21814;SDS011;11069;48.988;8.450;2023-11-18T10:55:43;4.88;;;2.50;;
21814;SDS011;11069;48.988;8.450;2023-11-18T10:58:09;4.15;;;2.40;;
21814;SDS011;11069;48.988;8.450;2023-11-18T11:00:51;3.90;;;2.20;;
21814;SDS011;11069;48.988;8.450;2023-11-18T11:03:21;5.65;;;2.47;;
21814;SDS011;11069;48.988;8.450;2023-11-18T11:05:49;5.80;;;2.60;;
21814;SDS011;11069;48.988;8.450;2023-11-18T11:08:15;3.17;;;2.30;;
21814;SDS011;11069;48.988;8.450;2023-11-18T11:10:43;3.72;;;2.10;;
21814;SDS011;11069;48.988;8.450;2023-11-18T11:13:09;4.32;;;2.00;;
21814;SDS011;11069;48.988;8.450;2023-11-18T11:15:40;3.70;;;2.42;;
21814;SDS011;11069;48.988;8.450;2023-11-18T11:18:11;3.13;;;2.30;;
21814;SDS011;11069;48.988;8.450;2023-11-18T11:23:46;3.83;;;2.40;;
21814;SDS011;11069;48.988;8.450;2023-11-18T11:26:39;2.45;;;1.90;;
21814;SDS011;11069;48.988;8.450;2023-11-18T11:32:00;6.30;;;2.58;;
21814;SDS011;11069;48.988;8.450;2023-11-18T11:34:37;3.17;;;2.35;;
21814;SDS011;11069;48.988;8.450;2023-11-18T11:37:13;2.35;;;2.15;;
21814;SDS011;11069;48.988;8.450;2023-11-18T11:39:40;2.97;;;2.40;;
21814;SDS011;11069;48.988;8.450;2023-11-18T11:42:11;3.72;;;2.58;;
21814;SDS011;11069;48.988;8.450;2023-11-18T11:47:08;3.13;;;2.45;;
21814;SDS011;11069;48.988;8.450;2023-11-18T11:49:59;4.47;;;2.97;;
21814;SDS011;11069;48.988;8.450;2023-11-18T11:52:37;4.22;;;2.50;;
21814;SDS011;11069;48.988;8.450;2023-11-18T11:55:10;4.80;;;3.08;;
21814;SDS011;11069;48.988;8.450;2023-11-18T11:57:49;3.65;;;2.65;;
21814;SDS011;11069;48.988;8.450;2023-11-18T12:00:18;4.50;;;2.80;;
21814;SDS011;11069;48.988;8.450;2023-11-18T12:02:50;2.95;;;2.63;;
21814;SDS011;11069;48.988;8.450;2023-11-18T12:05:20;4.13;;;2.88;;
21814;SDS011;11069;48.988;8.450;2023-11-18T12:10:27;4.30;;;2.85;;
21814;SDS011;11069;48.988;8.450;2023-11-18T12:13:08;3.17;;;2.80;;
21814;SDS011;11069;48.988;8.450;2023-11-18T12:15:53;5.35;;;4.10;;
21814;SDS011;11069;48.988;8.450;2023-11-18T12:18:22;4.25;;;3.05;;
21814;SDS011;11069;48.988;8.450;2023-11-18T12:20:49;3.97;;;2.90;;
21814;SDS011;11069;48.988;8.450;2023-11-18T12:23:21;4.38;;;3.03;;
21814;SDS011;11069;48.988;8.450;2023-11-18T12:25:50;4.35;;;2.80;;
21814;SDS011;11069;48.988;8.450;2023-11-18T12:28:31;4.30;;;3.33;;
21814;SDS011;11069;48.988;8.450;2023-11-18T12:31:02;5.38;;;3.30;;
21814;SDS011;11069;48.988;8.450;2023-11-18T12:42:08;5.97;;;3.25;;
21814;SDS011;11069;48.988;8.450;2023-11-18T12:45:21;4.22;;;3.38;;
21814;SDS011;11069;48.988;8.450;2023-11-18T12:47:49;4.22;;;3.70;;
21814;SDS011;11069;48.988;8.450;2023-11-18T12:50:19;4.25;;;3.83;;
21814;SDS011;11069;48.988;8.450;2023-11-18T12:52:52;5.63;;;4.40;;
21814;SDS011;11069;48.988;8.450;2023-11-18T12:55:18;6.85;;;4.60;;
21814;SDS011;11069;48.988;8.450;2023-11-18T12:57:47;6.93;;;4.63;;
21814;SDS011;11069;48.988;8.450;2023-11-18T13:00:15;8.52;;;5.07;;
21814;SDS011;11069;48.988;8.450;2023-11-18T13:02:52;7.72;;;5.10;;
21814;SDS011;11069;48.988;8.450;2023-11-18T13:05:23;5.85;;;4.65;;
21814;SDS011;11069;48.988;8.450;2023-11-18T13:07:54;5.88;;;4.60;;
21814;SDS011;11069;48.988;8.450;2023-11-18T13:10:24;7.60;;;4.82;;
21814;SDS011;11069;48.988;8.450;2023-11-18T13:12:52;7.43;;;4.68;;
21814;SDS011;11069;48.988;8.450;2023-11-18T13:15:20;7.25;;;4.25;;
21814;SDS011;11069;48.988;8.450;2023-11-18T13:18:02;6.68;;;4.13;;
21814;SDS011;11069;48.988;8.450;2023-11-18T13:20:31;6.38;;;4.28;;
21814;SDS011;11069;48.988;8.450;2023-11-18T13:23:00;5.88;;;4.65;;
21814;SDS011;11069;48.988;8.450;2023-11-18T13:25:33;5.63;;;4.75;;
21814;SDS011;11069;48.988;8.450;2023-11-18T13:28:04;6.20;;;5.03;;
21814;SDS011;11069;48.988;8.450;2023-11-18T13:30:30;6.82;;;5.47;;
21814;SDS011;11069;48.988;8.450;2023-11-18T13:32:57;7.38;;;5.55;;
21814;SDS011;11069;48.988;8.450;2023-11-18T13:35:23;8.43;;;5.75;;
21814;SDS011;11069;48.988;8.450;2023-11-18T13:37:49;7.13;;;4.45;;
21814;SDS011;11069;48.988;8.450;2023-11-18T13:40:15;6.10;;;4.85;;
21814;SDS011;11069;48.988;8.450;2023-11-18T13:42:44;8.43;;;5.60;;
21814;SDS011;11069;48.988;8.450;2023-11-18T13:45:13;7.28;;;5.00;;
21814;SDS011;11069;48.988;8.450;2023-11-18T13:47:50;6.72;;;4.60;;
21814;SDS011;11069;48.988;8.450;2023-11-18T13:50:19;7.40;;;4.47;;
21814;SDS011;11069;48.988;8.450;2023-11-18T13:52:46;5.25;;;3.95;;
21814;SDS011;11069;48.988;8.450;2023-11-18T13:55:14;4.68;;;3.20;;
21814;SDS011;11069;48.988;8.450;2023-11-18T13:57:56;5.13;;;3.85;;
21814;SDS011;11069;48.988;8.450;2023-11-18T14:00:26;5.05;;;3.60;;
21814;SDS011;11069;48.988;8.450;2023-11-18T14:02:53;7.83;;;4.23;;
21814;SDS011;11069;48.988;8.450;2023-11-18T14:05:21;8.88;;;4.43;;
21814;SDS011;11069;48.988;8.450;2023-11-18T14:07:49;4.97;;;3.95;;
21814;SDS011;11069;48.988;8.450;2023-11-18T14:10:17;5.72;;;4.00;;
21814;SDS011;11069;48.988;8.450;2023-11-18T14:13:00;4.68;;;4.13;;
21814;SDS011;11069;48.988;8.450;2023-11-18T14:15:28;5.40;;;4.18;;
21814;SDS011;11069;48.988;8.450;2023-11-18T14:17:55;6.00;;;4.15;;
21814;SDS011;11069;48.988;8.450;2023-11-18T14:20:20;6.95;;;4.35;;
21814;SDS011;11069;48.988;8.450;2023-11-18T14:22:47;5.78;;;4.32;;
21814;SDS011;11069;48.988;8.450;2023-11-18T14:25:14;8.13;;;4.28;;
21814;SDS011;11069;48.988;8.450;2023-11-18T14:27:40;7.93;;;4.13;;
21814;SDS011;11069;48.988;8.450;2023-11-18T14:30:06;5.53;;;3.88;;
21814;SDS011;11069;48.988;8.450;2023-11-18T14:32:34;7.18;;;3.95;;
21814;SDS011;11069;48.988;8.450;2023-11-18T14:35:00;6.57;;;3.70;;
21814;SDS011;11069;48.988;8.450;2023-11-18T14:37:26;5.05;;;4.03;;
21814;SDS011;11069;48.988;8.450;2023-11-18T14:39:51;4.95;;;3.90;;
21814;SDS011;11069;48.988;8.450;2023-11-18T14:42:20;4.25;;;3.58;;
21814;SDS011;11069;48.988;8.450;2023-11-18T14:44:48;5.97;;;4.22;;
21814;SDS011;11069;48.988;8.450;2023-11-18T14:47:14;6.25;;;3.95;;
21814;SDS011;11069;48.988;8.450;2023-11-18T14:49:41;7.65;;;4.00;;
21814;SDS011;11069;48.988;8.450;2023-11-18T14:52:07;6.57;;;4.03;;
21814;SDS011;11069;48.988;8.450;2023-11-18T14:54:33;4.82;;;3.95;;
21814;SDS011;11069;48.988;8.450;2023-11-18T14:57:01;5.03;;;3.90;;
21814;SDS011;11069;48.988;8.450;2023-11-18T14:59:31;6.60;;;3.97;;
21814;SDS011;11069;48.988;8.450;2023-11-18T15:01:56;6.43;;;5.30;;
21814;SDS011;11069;48.988;8.450;2023-11-18T15:04:25;9.57;;;7.18;;
21814;SDS011;11069;48.988;8.450;2023-11-18T15:06:51;8.75;;;6.15;;